createdAt,value
2023-03-12T00:01:40.942Z,23.90
2023-03-12T00:04:12.389Z,23.90
2023-03-12T00:06:42.516Z,23.90
2023-03-12T00:09:14.024Z,23.90
2023-03-12T00:11:50.429Z,23.90
2023-03-12T00:14:21.908Z,23.90
2023-03-12T00:16:52.622Z,23.80
2023-03-12T00:19:23.348Z,23.80
2023-03-12T00:21:57.134Z,23.80
2023-03-12T00:24:32.686Z,23.80
2023-03-12T00:27:05.784Z,23.80
2023-03-12T00:29:36.218Z,23.80
2023-03-12T00:32:06.916Z,23.80
2023-03-12T00:34:36.957Z,23.80
2023-03-12T00:37:08.854Z,23.80
2023-03-12T00:39:41.704Z,23.80
2023-03-12T00:42:17.463Z,23.80
2023-03-12T00:44:48.134Z,23.80
2023-03-12T00:47:20.917Z,23.80
2023-03-12T00:49:52.164Z,23.80
2023-03-12T00:52:23.566Z,23.80
2023-03-12T00:54:59.405Z,23.80
2023-03-12T00:57:33.531Z,23.80
2023-03-12T01:00:05.579Z,23.80
2023-03-12T01:02:37.032Z,23.80
2023-03-12T01:05:09.824Z,23.80
2023-03-12T01:07:41.032Z,23.80
2023-03-12T01:10:17.832Z,23.80
2023-03-12T01:12:50.308Z,23.80
2023-03-12T01:15:23.752Z,23.80
2023-03-12T01:17:54.859Z,23.80
2023-03-12T01:20:26.462Z,23.70
2023-03-12T01:22:58.389Z,23.80
2023-03-12T01:25:29.992Z,23.70
2023-03-12T01:28:05.433Z,23.80
2023-03-12T01:30:36.090Z,23.70
2023-03-12T01:33:07.074Z,23.80
2023-03-12T01:35:40.200Z,23.80
2023-03-12T01:38:10.405Z,23.80
2023-03-12T01:40:41.626Z,23.70
2023-03-12T01:43:31.146Z,23.80
2023-03-12T01:46:18.983Z,23.70
2023-03-12T01:48:53.218Z,23.70
2023-03-12T01:51:25.673Z,23.70
2023-03-12T01:53:59.103Z,23.70
2023-03-12T01:56:34.245Z,23.70
2023-03-12T01:59:13.542Z,23.70
2023-03-12T02:01:44.623Z,23.70
2023-03-12T02:04:16.824Z,23.60
2023-03-12T02:06:52.804Z,23.60
2023-03-12T02:09:26.606Z,23.60
2023-03-12T02:11:56.534Z,23.70
2023-03-12T02:14:31.868Z,23.60
2023-03-12T02:17:04.495Z,23.60
2023-03-12T02:19:42.775Z,23.60
2023-03-12T02:22:17.654Z,23.60
2023-03-12T02:24:53.230Z,23.60
2023-03-12T02:27:26.528Z,23.60
2023-03-12T02:30:00.045Z,23.60
2023-03-12T02:32:36.600Z,23.60
2023-03-12T02:35:07.891Z,23.60
2023-03-12T02:37:39.110Z,23.60
2023-03-12T02:40:19.444Z,23.60
2023-03-12T02:42:52.223Z,23.60
2023-03-12T02:45:23.062Z,23.60
2023-03-12T02:47:53.370Z,23.60
2023-03-12T02:50:24.615Z,23.60
2023-03-12T02:52:54.740Z,23.60
2023-03-12T02:55:25.104Z,23.60
2023-03-12T02:57:57.673Z,23.60
2023-03-12T03:00:28.530Z,23.60
2023-03-12T03:03:00.574Z,23.60
2023-03-12T03:05:30.143Z,23.60
2023-03-12T03:08:01.187Z,23.60
2023-03-12T03:10:31.522Z,23.60
2023-03-12T03:13:03.379Z,23.50
2023-03-12T03:15:37.040Z,23.50
2023-03-12T03:18:07.428Z,23.50
2023-03-12T03:20:38.326Z,23.50
2023-03-12T03:23:09.636Z,23.50
2023-03-12T03:25:40.713Z,23.60
2023-03-12T03:28:17.310Z,23.50
2023-03-12T03:30:48.106Z,23.50
2023-03-12T03:33:18.496Z,23.50
2023-03-12T03:35:51.467Z,23.50
2023-03-12T03:38:22.804Z,23.50
2023-03-12T03:40:55.818Z,23.50
2023-03-12T03:43:28.950Z,23.50
2023-03-12T03:46:08.152Z,23.50
2023-03-12T03:48:41.278Z,23.50
2023-03-12T03:51:13.539Z,23.50
2023-03-12T03:53:44.184Z,23.50
2023-03-12T03:56:17.500Z,23.50
2023-03-12T03:58:50.549Z,23.50
2023-03-12T04:01:22.397Z,23.50
2023-03-12T04:03:59.301Z,23.50
2023-03-12T04:06:30.924Z,23.50
2023-03-12T04:09:01.968Z,23.50
2023-03-12T04:11:32.317Z,23.50
2023-03-12T04:14:04.398Z,23.50
2023-03-12T04:16:34.701Z,23.50
2023-03-12T04:19:05.648Z,23.50
2023-03-12T04:21:36.340Z,23.50
2023-03-12T04:24:07.381Z,23.50
2023-03-12T04:26:37.940Z,23.50
2023-03-12T04:29:12.443Z,23.40
2023-03-12T04:31:43.040Z,23.50
2023-03-12T04:34:16.099Z,23.50
2023-03-12T04:36:49.795Z,23.40
2023-03-12T04:39:22.165Z,23.50
2023-03-12T04:41:53.808Z,23.40
2023-03-12T04:44:32.721Z,23.40
2023-03-12T04:47:06.530Z,23.40
2023-03-12T04:49:37.888Z,23.40
2023-03-12T04:52:08.976Z,23.40
2023-03-12T04:54:41.180Z,23.40
2023-03-12T04:57:15.505Z,23.50
2023-03-12T04:59:49.411Z,23.50
2023-03-12T05:02:20.989Z,23.40
2023-03-12T05:04:52.267Z,23.40
2023-03-12T05:07:26.553Z,23.40
2023-03-12T05:09:57.992Z,23.40
2023-03-12T05:12:29.114Z,23.40
2023-03-12T05:15:01.525Z,23.40
2023-03-12T05:17:35.062Z,23.40
2023-03-12T05:20:07.468Z,23.40
2023-03-12T05:22:38.310Z,23.40
2023-03-12T05:25:09.784Z,23.40
2023-03-12T05:27:41.267Z,23.40
2023-03-12T05:30:15.354Z,23.40
2023-03-12T05:32:45.983Z,23.40
2023-03-12T05:35:17.575Z,23.40
2023-03-12T05:37:52.576Z,23.40
2023-03-12T05:40:23.392Z,23.40
2023-03-12T05:42:57.672Z,23.40
2023-03-12T05:45:31.221Z,23.40
2023-03-12T05:48:02.720Z,23.40
2023-03-12T05:50:33.765Z,23.40
2023-03-12T05:53:04.686Z,23.40
2023-03-12T05:55:38.512Z,23.40
2023-03-12T05:58:12.568Z,23.40
2023-03-12T06:00:46.440Z,23.40
2023-03-12T06:03:17.743Z,23.40
2023-03-12T06:05:51.613Z,23.40
2023-03-12T06:08:25.681Z,23.40
2023-03-12T06:11:01.724Z,23.40
2023-03-12T06:13:33.328Z,23.40
2023-03-12T06:16:12.622Z,23.40
2023-03-12T06:18:42.527Z,23.40
2023-03-12T06:21:16.064Z,23.40
2023-03-12T06:23:47.178Z,23.40
2023-03-12T06:26:18.049Z,23.40
2023-03-12T06:28:48.481Z,23.40
2023-03-12T06:31:22.615Z,23.40
2023-03-12T06:33:54.443Z,23.40
2023-03-12T06:36:25.792Z,23.40
2023-03-12T06:38:57.323Z,23.40
2023-03-12T06:41:27.889Z,23.40
2023-03-12T06:43:59.519Z,23.40
2023-03-12T06:46:31.961Z,23.40
2023-03-12T06:49:03.923Z,23.40
2023-03-12T06:51:34.117Z,23.30
2023-03-12T06:54:04.256Z,23.40
2023-03-12T06:56:39.829Z,23.40
2023-03-12T06:59:10.713Z,23.40
2023-03-12T07:01:46.242Z,23.30
2023-03-12T07:04:16.861Z,23.30
2023-03-12T07:06:52.051Z,23.40
2023-03-12T07:09:26.982Z,23.40
2023-03-12T07:11:58.317Z,23.40
2023-03-12T07:14:29.271Z,23.30
2023-03-12T07:17:04.756Z,23.40
2023-03-12T07:19:35.096Z,23.40
2023-03-12T07:22:04.768Z,23.40
2023-03-12T07:24:36.693Z,23.40
2023-03-12T07:27:09.749Z,23.40
2023-03-12T07:29:41.032Z,23.40
2023-03-12T07:32:14.558Z,23.40
2023-03-12T07:34:45.123Z,23.40
2023-03-12T07:37:14.834Z,23.50
2023-03-12T07:39:45.945Z,23.50
2023-03-12T07:42:19.712Z,23.40
2023-03-12T07:44:51.614Z,23.40
2023-03-12T07:47:24.840Z,23.40
2023-03-12T07:49:55.086Z,23.40
2023-03-12T07:52:24.973Z,23.40
2023-03-12T07:54:58.562Z,23.40
2023-03-12T07:57:31.640Z,23.40
2023-03-12T08:00:01.711Z,23.40
2023-03-12T08:02:33.566Z,23.40
2023-03-12T08:05:03.771Z,23.50
2023-03-12T08:07:36.075Z,23.40
2023-03-12T08:10:09.780Z,23.40
2023-03-12T08:12:40.926Z,23.50
2023-03-12T08:15:13.537Z,23.50
2023-03-12T08:17:46.588Z,23.40
2023-03-12T08:20:19.201Z,23.40
2023-03-12T08:22:50.622Z,23.40
2023-03-12T08:25:21.595Z,23.40
2023-03-12T08:27:52.649Z,23.40
2023-03-12T08:30:25.322Z,23.50
2023-03-12T08:33:01.154Z,23.50
2023-03-12T08:35:34.588Z,23.50
2023-03-12T08:38:09.114Z,23.50
2023-03-12T08:40:41.958Z,23.50
2023-03-12T08:43:14.321Z,23.50
2023-03-12T08:45:45.907Z,23.50
2023-03-12T08:48:18.781Z,23.50
2023-03-12T08:50:51.098Z,23.50
2023-03-12T08:53:22.378Z,23.50
2023-03-12T08:55:54.602Z,23.50
2023-03-12T08:58:25.419Z,23.50
2023-03-12T09:00:56.534Z,23.50
2023-03-12T09:03:29.394Z,23.60
2023-03-12T09:06:07.629Z,23.60
2023-03-12T09:08:37.882Z,23.60
2023-03-12T09:11:12.929Z,23.60
2023-03-12T09:14:15.015Z,23.60
2023-03-12T09:16:35.301Z,23.60
2023-03-12T09:19:07.384Z,23.60
2023-03-12T09:21:41.046Z,23.70
2023-03-12T09:24:12.333Z,23.60
2023-03-12T09:26:42.326Z,23.70
2023-03-12T09:29:14.885Z,23.70
2023-03-12T09:31:49.857Z,23.70
2023-03-12T09:34:22.137Z,23.70
2023-03-12T09:36:52.982Z,23.60
2023-03-12T09:39:23.194Z,23.60
2023-03-12T09:41:54.276Z,23.70
2023-03-12T09:44:32.650Z,23.60
2023-03-12T09:47:08.556Z,23.60
2023-03-12T09:49:43.967Z,23.70
2023-03-12T09:52:23.440Z,23.70
2023-03-12T09:55:04.113Z,23.70
2023-03-12T09:57:33.857Z,23.70
2023-03-12T10:00:07.113Z,23.80
2023-03-12T10:02:56.546Z,23.70
2023-03-12T10:05:38.818Z,23.70
2023-03-12T10:08:25.512Z,23.70
2023-03-12T10:10:59.280Z,23.80
2023-03-12T10:14:00.264Z,23.80
2023-03-12T10:16:46.619Z,23.80
2023-03-12T10:19:28.293Z,23.80
2023-03-12T10:22:10.824Z,23.80
2023-03-12T10:24:55.235Z,23.80
2023-03-12T10:27:30.718Z,23.80
2023-03-12T10:30:01.668Z,23.80
2023-03-12T10:32:39.941Z,23.80
2023-03-12T10:35:21.736Z,23.80
2023-03-12T10:37:57.261Z,23.80
2023-03-12T10:40:29.648Z,23.80
2023-03-12T10:43:01.423Z,23.80
2023-03-12T10:45:39.739Z,23.80
2023-03-12T10:48:12.474Z,23.80
2023-03-12T10:50:46.798Z,23.80
2023-03-12T10:53:32.630Z,23.80
2023-03-12T10:56:07.731Z,23.80
2023-03-12T10:58:43.098Z,23.80
2023-03-12T11:01:23.068Z,23.80
2023-03-12T11:03:54.285Z,23.80
2023-03-12T11:06:26.254Z,23.80
2023-03-12T11:09:16.998Z,23.80
2023-03-12T11:11:49.401Z,23.80
2023-03-12T11:14:24.660Z,23.80
2023-03-12T11:17:00.059Z,23.80
2023-03-12T11:19:33.265Z,23.80
2023-03-12T11:22:08.263Z,23.90
2023-03-12T11:24:57.982Z,23.90
2023-03-12T11:27:38.540Z,23.90
2023-03-12T11:30:13.751Z,23.90
2023-03-12T11:32:49.868Z,23.90
2023-03-12T11:35:33.909Z,23.90
2023-03-12T11:38:18.833Z,23.90
2023-03-12T11:41:06.993Z,23.90
2023-03-12T11:43:52.780Z,24.00
2023-03-12T11:46:39.575Z,24.00
2023-03-12T11:49:21.692Z,24.00
2023-03-12T11:51:59.769Z,24.00
2023-03-12T11:54:50.802Z,24.00
2023-03-12T11:57:34.138Z,24.00
2023-03-12T12:00:18.283Z,24.00
2023-03-12T12:03:23.011Z,24.00
2023-03-12T12:06:01.381Z,24.00
2023-03-12T12:09:05.232Z,24.00
2023-03-12T12:11:47.770Z,24.10
2023-03-12T12:14:33.258Z,24.10
2023-03-12T12:17:15.110Z,24.10
2023-03-12T12:20:10.518Z,24.20
2023-03-12T12:22:51.530Z,24.20
2023-03-12T12:25:37.992Z,24.20
2023-03-12T12:28:36.378Z,24.20
2023-03-12T12:31:23.719Z,24.20
2023-03-12T12:34:14.512Z,24.20
2023-03-12T12:36:49.089Z,24.20
2023-03-12T12:39:26.215Z,24.30
2023-03-12T12:42:00.980Z,24.30
2023-03-12T12:44:38.118Z,24.20
2023-03-12T12:47:24.483Z,24.20
2023-03-12T12:50:00.884Z,24.20
2023-03-12T12:52:32.354Z,24.20
2023-03-12T12:55:10.768Z,24.20
2023-03-12T12:57:44.562Z,24.20
2023-03-12T13:00:39.565Z,24.20
2023-03-12T13:03:20.634Z,24.20
2023-03-12T13:05:58.440Z,24.20
2023-03-12T13:08:53.584Z,24.20
2023-03-12T13:11:29.604Z,24.20
2023-03-12T13:14:38.064Z,24.20
2023-03-12T13:17:35.370Z,24.10
2023-03-12T13:20:21.330Z,24.20
2023-03-12T13:23:11.853Z,24.20
2023-03-12T13:25:58.361Z,24.10
2023-03-12T13:28:43.668Z,24.20
2023-03-12T13:31:37.434Z,24.20
2023-03-12T13:34:33.201Z,24.20
2023-03-12T13:37:08.593Z,24.30
2023-03-12T13:39:39.608Z,24.30
2023-03-12T13:42:42.627Z,24.30
2023-03-12T13:45:30.868Z,24.40
2023-03-12T13:48:07.541Z,24.40
2023-03-12T13:50:52.195Z,24.40
2023-03-12T13:53:28.416Z,24.40
2023-03-12T13:56:07.133Z,24.40
2023-03-12T13:58:46.608Z,24.40
2023-03-12T14:01:21.700Z,24.40
2023-03-12T14:03:55.022Z,24.30
2023-03-12T14:06:29.962Z,24.40
2023-03-12T14:09:13.881Z,24.30
2023-03-12T14:11:59.298Z,24.30
2023-03-12T14:14:56.677Z,24.30
2023-03-12T14:17:32.192Z,24.30
2023-03-12T14:20:05.991Z,24.30
2023-03-12T14:22:40.630Z,24.30
2023-03-12T14:25:19.804Z,24.20
2023-03-12T14:27:51.308Z,24.30
2023-03-12T14:30:23.816Z,24.20
2023-03-12T14:33:01.677Z,24.30
2023-03-12T14:35:36.809Z,24.30
2023-03-12T14:38:13.055Z,24.40
2023-03-12T14:40:48.591Z,24.40
2023-03-12T14:43:27.771Z,24.40
2023-03-12T14:45:59.801Z,24.40
2023-03-12T14:48:32.291Z,24.40
2023-03-12T14:51:03.989Z,24.40
2023-03-12T14:53:36.312Z,24.50
2023-03-12T14:56:14.773Z,24.40
2023-03-12T14:58:47.241Z,24.40
2023-03-12T15:01:21.042Z,24.40
2023-03-12T15:03:53.878Z,24.40
2023-03-12T15:06:31.599Z,24.40
2023-03-12T15:09:05.076Z,24.50
2023-03-12T15:11:42.459Z,24.50
2023-03-12T15:14:18.123Z,24.50
2023-03-12T15:16:51.709Z,24.40
2023-03-12T15:19:33.799Z,24.50
2023-03-12T15:22:06.321Z,24.50
2023-03-12T15:24:42.089Z,24.50
2023-03-12T15:27:31.832Z,24.50
2023-03-12T15:30:26.523Z,24.50
2023-03-12T15:33:11.691Z,24.40
2023-03-12T15:35:44.591Z,24.40
2023-03-12T15:38:21.033Z,24.40
2023-03-12T15:40:54.615Z,24.40
2023-03-12T15:43:29.850Z,24.40
2023-03-12T15:46:02.916Z,24.40
2023-03-12T15:48:35.941Z,24.40
2023-03-12T15:51:14.855Z,24.40
2023-03-12T15:53:45.908Z,24.30
2023-03-12T15:56:25.826Z,24.30
2023-03-12T15:59:07.427Z,24.30
2023-03-12T16:01:56.572Z,24.30
2023-03-12T16:04:28.776Z,24.30
2023-03-12T16:07:02.070Z,24.30
2023-03-12T16:09:36.880Z,24.30
2023-03-12T16:12:07.838Z,24.30
2023-03-12T16:14:41.239Z,24.30
2023-03-12T16:17:18.505Z,24.30
2023-03-12T16:19:48.484Z,24.30
2023-03-12T16:22:20.824Z,24.20
2023-03-12T16:24:54.304Z,24.30
2023-03-12T16:27:32.947Z,24.30
2023-03-12T16:30:04.880Z,24.30
2023-03-12T16:32:35.272Z,24.30
2023-03-12T16:35:14.707Z,24.30
2023-03-12T16:37:46.704Z,24.30
2023-03-12T16:40:27.550Z,24.20
2023-03-12T16:43:09.722Z,24.20
2023-03-12T16:45:47.282Z,24.20
2023-03-12T16:48:24.118Z,24.20
2023-03-12T16:50:55.976Z,24.20
2023-03-12T16:53:26.202Z,24.20
2023-03-12T16:55:58.677Z,24.20
2023-03-12T16:58:33.617Z,24.20
2023-03-12T17:01:06.357Z,24.20
2023-03-12T17:03:39.089Z,24.20
2023-03-12T17:06:10.148Z,24.20
2023-03-12T17:08:40.039Z,24.20
2023-03-12T17:11:17.721Z,24.20
2023-03-12T17:13:49.225Z,24.20
2023-03-12T17:16:23.783Z,24.20
2023-03-12T17:18:54.338Z,24.20
2023-03-12T17:21:25.897Z,24.20
2023-03-12T17:23:56.393Z,24.20
2023-03-12T17:26:27.955Z,24.20
2023-03-12T17:28:57.887Z,24.20
2023-03-12T17:31:30.061Z,24.20
2023-03-12T17:34:00.590Z,24.10
2023-03-12T17:36:33.057Z,24.20
2023-03-12T17:39:03.278Z,24.20
2023-03-12T17:41:35.141Z,24.10
2023-03-12T17:44:08.303Z,24.20
2023-03-12T17:46:56.689Z,24.20
2023-03-12T17:49:29.591Z,24.10
2023-03-12T17:52:02.598Z,24.10
2023-03-12T17:54:36.335Z,24.10
2023-03-12T17:57:18.655Z,24.10
2023-03-12T17:59:49.768Z,24.10
2023-03-12T18:02:21.917Z,24.10
2023-03-12T18:04:52.675Z,24.10
2023-03-12T18:07:24.438Z,24.10
2023-03-12T18:09:55.175Z,24.10
2023-03-12T18:12:28.686Z,24.10
2023-03-12T18:14:59.188Z,24.10
2023-03-12T18:17:34.149Z,24.10
2023-03-12T18:20:09.172Z,24.10
2023-03-12T18:22:45.456Z,24.10
2023-03-12T18:25:16.379Z,24.10
2023-03-12T18:27:48.174Z,24.10
2023-03-12T18:30:22.489Z,24.10
2023-03-12T18:32:58.305Z,24.10
2023-03-12T18:35:31.360Z,24.10
2023-03-12T18:38:03.565Z,24.10
2023-03-12T18:40:36.134Z,24.10
2023-03-12T18:43:09.055Z,24.10
2023-03-12T18:45:45.317Z,24.10
2023-03-12T18:48:19.126Z,24.10
2023-03-12T18:50:53.785Z,24.10
2023-03-12T18:53:29.965Z,24.10
2023-03-12T18:56:02.289Z,24.10
2023-03-12T18:58:33.193Z,24.00
2023-03-12T19:01:04.969Z,24.10
2023-03-12T19:03:38.225Z,24.10
2023-03-12T19:06:11.560Z,24.10
2023-03-12T19:08:43.302Z,24.00
2023-03-12T19:11:17.407Z,24.10
2023-03-12T19:13:53.169Z,24.10
2023-03-12T19:16:38.639Z,24.10
2023-03-12T19:19:11.847Z,24.10
2023-03-12T19:21:43.296Z,24.10
2023-03-12T19:24:16.664Z,24.10
2023-03-12T19:26:49.327Z,24.10
2023-03-12T19:29:22.921Z,24.10
2023-03-12T19:31:55.260Z,24.00
2023-03-12T19:34:28.284Z,24.10
2023-03-12T19:36:59.927Z,24.00
2023-03-12T19:39:32.854Z,24.00
2023-03-12T19:42:06.931Z,24.00
2023-03-12T19:44:40.912Z,24.00
2023-03-12T19:47:13.582Z,24.00
2023-03-12T19:49:50.699Z,24.00
2023-03-12T19:52:24.737Z,24.00
2023-03-12T19:55:04.616Z,24.00
2023-03-12T19:57:38.054Z,24.00
2023-03-12T20:00:13.476Z,24.00
2023-03-12T20:02:46.804Z,24.00
2023-03-12T20:05:20.194Z,24.00
2023-03-12T20:07:51.196Z,24.00
2023-03-12T20:10:22.122Z,24.00
2023-03-12T20:12:53.390Z,24.00
2023-03-12T20:15:24.948Z,24.00
2023-03-12T20:17:59.228Z,24.00
2023-03-12T20:20:32.094Z,24.00
2023-03-12T20:23:03.878Z,23.90
2023-03-12T20:25:34.930Z,23.90
2023-03-12T20:28:11.934Z,24.00
2023-03-12T20:30:43.926Z,24.00
2023-03-12T20:33:15.472Z,24.00
2023-03-12T20:35:50.444Z,24.00
2023-03-12T20:38:21.229Z,24.00
2023-03-12T20:40:52.079Z,24.00
2023-03-12T20:43:24.291Z,24.00
2023-03-12T20:45:55.667Z,24.00
2023-03-12T20:48:26.832Z,24.00
2023-03-12T20:51:04.613Z,24.00
2023-03-12T20:53:36.336Z,24.00
2023-03-12T20:56:07.283Z,24.00
2023-03-12T20:58:38.138Z,24.00
2023-03-12T21:01:10.134Z,24.00
2023-03-12T21:03:40.248Z,23.90
2023-03-12T21:06:16.031Z,24.00
2023-03-12T21:08:46.495Z,24.00
2023-03-12T21:11:17.052Z,23.90
2023-03-12T21:13:47.722Z,24.00
2023-03-12T21:16:18.992Z,24.00
2023-03-12T21:18:52.394Z,24.00
2023-03-12T21:21:24.699Z,24.00
2023-03-12T21:23:55.332Z,24.00
2023-03-12T21:26:26.989Z,23.90
2023-03-12T21:29:02.328Z,24.00
2023-03-12T21:31:33.080Z,23.90
2023-03-12T21:34:03.598Z,24.00
2023-03-12T21:36:38.628Z,24.00
2023-03-12T21:39:11.659Z,24.00
2023-03-12T21:41:42.057Z,24.00
2023-03-12T21:44:13.668Z,23.90
2023-03-12T21:46:45.855Z,24.00
2023-03-12T21:49:18.859Z,23.90
2023-03-12T21:51:51.844Z,24.00
2023-03-12T21:54:25.178Z,24.00
2023-03-12T21:56:55.929Z,23.90
2023-03-12T21:59:26.684Z,24.00
2023-03-12T22:01:57.150Z,23.90
2023-03-12T22:04:27.634Z,23.90
2023-03-12T22:06:59.684Z,23.90
2023-03-12T22:09:29.571Z,23.90
2023-03-12T22:11:59.862Z,23.90
2023-03-12T22:14:30.378Z,23.90
2023-03-12T22:17:05.806Z,23.90
2023-03-12T22:19:36.191Z,23.90
2023-03-12T22:22:07.778Z,23.90
2023-03-12T22:24:38.173Z,23.90
2023-03-12T22:27:08.818Z,23.90
2023-03-12T22:29:43.155Z,23.90
2023-03-12T22:32:16.277Z,23.90
2023-03-12T22:34:46.778Z,23.90
2023-03-12T22:37:18.864Z,23.90
2023-03-12T22:39:49.821Z,23.90
2023-03-12T22:42:21.888Z,23.90
2023-03-12T22:44:52.623Z,23.90
2023-03-12T22:47:26.898Z,23.90
2023-03-12T22:49:58.953Z,23.90
2023-03-12T22:52:33.537Z,23.90
2023-03-12T22:55:03.736Z,23.90
2023-03-12T22:57:37.046Z,23.80
2023-03-12T23:00:12.236Z,23.90
2023-03-12T23:02:43.987Z,23.80
2023-03-12T23:05:15.183Z,23.80
2023-03-12T23:07:48.074Z,23.90
2023-03-12T23:10:23.064Z,23.90
2023-03-12T23:12:54.006Z,23.80
2023-03-12T23:15:35.138Z,23.90
2023-03-12T23:18:11.769Z,23.80
2023-03-12T23:20:44.046Z,23.80
2023-03-12T23:23:18.084Z,23.80
2023-03-12T23:25:56.920Z,23.90
2023-03-12T23:28:30.175Z,23.90
2023-03-12T23:31:02.464Z,23.90
2023-03-12T23:33:36.708Z,23.90
2023-03-12T23:36:11.458Z,23.90
2023-03-12T23:38:43.258Z,23.80
2023-03-12T23:41:16.343Z,23.80
2023-03-12T23:43:47.836Z,23.80
2023-03-12T23:46:20.148Z,23.80
2023-03-12T23:48:50.233Z,23.80
2023-03-12T23:51:23.039Z,23.80
2023-03-12T23:53:58.260Z,23.80
2023-03-12T23:56:35.197Z,23.80
2023-03-12T23:59:05.544Z,23.80
